createdAt,value
2023-11-10T00:00:14.002Z,4.95
2023-11-10T00:02:42.315Z,6.00
2023-11-10T00:05:09.936Z,5.60
2023-11-10T00:07:37.624Z,4.90
2023-11-10T00:10:06.027Z,3.30
2023-11-10T00:12:33.444Z,5.70
2023-11-10T00:15:00.509Z,4.32
2023-11-10T00:17:27.536Z,3.45
2023-11-10T00:19:54.403Z,3.45
2023-11-10T00:22:21.318Z,2.35
2023-11-10T00:24:48.311Z,3.92
2023-11-10T00:27:16.378Z,3.85
2023-11-10T00:29:46.373Z,4.35
2023-11-10T00:32:13.955Z,2.65
2023-11-10T00:34:42.129Z,2.83
2023-11-10T00:37:10.434Z,2.67
2023-11-10T00:39:37.710Z,3.03
2023-11-10T00:42:05.022Z,3.78
2023-11-10T00:44:32.042Z,2.90
2023-11-10T00:47:00.582Z,4.50
2023-11-10T00:49:28.009Z,1.73
2023-11-10T00:51:55.008Z,3.95
2023-11-10T00:54:22.048Z,3.22
2023-11-10T00:56:49.130Z,3.00
2023-11-10T00:59:16.246Z,2.63
2023-11-10T01:01:44.036Z,4.53
2023-11-10T01:04:11.589Z,3.67
2023-11-10T01:06:38.906Z,3.75
2023-11-10T01:09:05.916Z,3.55
2023-11-10T01:11:34.041Z,2.50
2023-11-10T01:14:01.162Z,2.88
2023-11-10T01:16:30.355Z,3.97
2023-11-10T01:18:57.524Z,1.90
2023-11-10T01:21:24.558Z,3.17
2023-11-10T01:23:53.429Z,2.95
2023-11-10T01:26:20.874Z,2.85
2023-11-10T01:28:48.345Z,4.75
2023-11-10T01:31:16.954Z,2.75
2023-11-10T01:33:47.448Z,2.00
2023-11-10T01:36:14.354Z,3.25
2023-11-10T01:38:41.610Z,4.28
2023-11-10T01:41:10.524Z,3.42
2023-11-10T01:43:37.506Z,2.25
2023-11-10T01:46:06.539Z,2.15
2023-11-10T01:48:33.904Z,2.42
2023-11-10T01:51:01.016Z,5.00
2023-11-10T01:53:27.890Z,3.28
2023-11-10T01:55:54.910Z,2.05
2023-11-10T01:58:21.968Z,3.42
2023-11-10T02:00:50.479Z,2.35
2023-11-10T02:03:20.212Z,4.03
2023-11-10T02:05:49.978Z,3.42
2023-11-10T02:08:16.876Z,2.65
2023-11-10T02:10:44.092Z,2.65
2023-11-10T02:13:21.438Z,2.72
2023-11-10T02:15:48.380Z,2.80
2023-11-10T02:18:16.474Z,2.30
2023-11-10T02:20:44.171Z,2.60
2023-11-10T02:23:11.115Z,3.53
2023-11-10T02:25:38.319Z,3.58
2023-11-10T02:28:06.318Z,1.92
2023-11-10T02:30:33.195Z,2.05
2023-11-10T02:33:00.137Z,2.25
2023-11-10T02:35:28.176Z,2.20
2023-11-10T02:37:56.357Z,3.03
2023-11-10T02:40:23.181Z,3.50
2023-11-10T02:42:50.005Z,3.35
2023-11-10T02:45:17.110Z,1.77
2023-11-10T02:47:44.612Z,2.03
2023-11-10T02:50:11.788Z,2.42
2023-11-10T02:52:38.678Z,2.53
2023-11-10T02:55:05.672Z,2.83
2023-11-10T02:57:32.605Z,3.42
2023-11-10T02:59:59.693Z,2.95
2023-11-10T03:02:27.406Z,2.88
2023-11-10T03:04:54.306Z,2.17
2023-11-10T03:07:21.107Z,2.40
2023-11-10T03:09:48.181Z,3.05
2023-11-10T03:12:15.383Z,2.03
2023-11-10T03:14:43.526Z,4.13
2023-11-10T03:17:10.398Z,2.58
2023-11-10T03:19:38.288Z,2.65
2023-11-10T03:22:05.328Z,3.60
2023-11-10T03:24:32.308Z,6.03
2023-11-10T03:26:59.243Z,3.00
2023-11-10T03:29:27.872Z,4.32
2023-11-10T03:31:54.857Z,2.85
2023-11-10T03:34:24.998Z,3.47
2023-11-10T03:36:52.194Z,2.45
2023-11-10T03:39:19.148Z,3.90
2023-11-10T03:41:46.104Z,3.15
2023-11-10T03:44:13.915Z,3.40
2023-11-10T03:46:40.934Z,3.38
2023-11-10T03:49:08.532Z,2.50
2023-11-10T03:51:35.478Z,3.60
2023-11-10T03:54:02.850Z,3.17
2023-11-10T03:56:30.013Z,2.60
2023-11-10T03:58:57.095Z,2.15
2023-11-10T04:01:24.007Z,2.70
2023-11-10T04:03:51.037Z,1.80
2023-11-10T04:06:20.182Z,4.15
2023-11-10T04:08:50.572Z,3.15
2023-11-10T04:11:17.440Z,3.50
2023-11-10T04:13:45.427Z,3.50
2023-11-10T04:16:26.164Z,2.97
2023-11-10T04:18:54.715Z,3.45
2023-11-10T04:21:27.476Z,4.30
2023-11-10T04:23:54.554Z,6.15
2023-11-10T04:26:21.918Z,3.75
2023-11-10T04:28:49.066Z,3.08
2023-11-10T04:31:16.809Z,3.40
2023-11-10T04:33:47.189Z,4.80
2023-11-10T04:36:14.590Z,4.85
2023-11-10T04:38:44.878Z,3.20
2023-11-10T04:41:12.495Z,4.28
2023-11-10T04:43:41.716Z,5.22
2023-11-10T04:46:09.495Z,3.90
2023-11-10T04:48:36.626Z,3.75
2023-11-10T04:51:07.224Z,2.60
2023-11-10T04:53:35.143Z,3.45
2023-11-10T04:56:02.880Z,3.70
2023-11-10T04:58:31.183Z,2.92
2023-11-10T05:00:58.305Z,4.25
2023-11-10T05:03:27.109Z,4.13
2023-11-10T05:05:54.088Z,3.97
2023-11-10T05:08:21.008Z,2.92
2023-11-10T05:10:48.393Z,2.85
2023-11-10T05:13:15.428Z,2.85
2023-11-10T05:15:43.685Z,5.13
2023-11-10T05:18:13.273Z,3.17
2023-11-10T05:20:41.113Z,2.95
2023-11-10T05:23:08.235Z,3.38
2023-11-10T05:25:35.078Z,5.93
2023-11-10T05:28:02.152Z,4.45
2023-11-10T05:30:29.194Z,4.05
2023-11-10T05:32:56.148Z,3.63
2023-11-10T05:35:23.507Z,3.25
2023-11-10T05:37:50.379Z,3.40
2023-11-10T05:40:18.758Z,2.90
2023-11-10T05:42:45.878Z,2.72
2023-11-10T05:45:12.928Z,3.72
2023-11-10T05:47:39.935Z,3.25
2023-11-10T05:50:08.036Z,3.20
2023-11-10T05:52:34.871Z,3.28
2023-11-10T05:55:01.760Z,4.00
2023-11-10T05:57:28.568Z,2.95
2023-11-10T05:59:55.469Z,4.10
2023-11-10T06:02:23.791Z,2.90
2023-11-10T06:04:50.756Z,3.22
2023-11-10T06:07:18.028Z,4.15
2023-11-10T06:09:45.099Z,4.13
2023-11-10T06:12:14.163Z,3.65
2023-11-10T06:14:43.378Z,4.88
2023-11-10T06:17:10.289Z,5.32
2023-11-10T06:19:37.128Z,5.68
2023-11-10T06:22:04.176Z,2.92
2023-11-10T06:24:31.078Z,3.10
2023-11-10T06:26:57.944Z,3.08
2023-11-10T06:29:24.806Z,4.93
2023-11-10T06:31:54.551Z,4.85
2023-11-10T06:34:23.063Z,3.88
2023-11-10T06:36:51.364Z,4.18
2023-11-10T06:39:19.273Z,7.40
2023-11-10T06:41:47.232Z,5.97
2023-11-10T06:44:20.246Z,4.90
2023-11-10T06:46:48.060Z,5.50
2023-11-10T06:49:15.280Z,6.88
2023-11-10T06:51:42.367Z,5.07
2023-11-10T06:54:10.748Z,4.15
2023-11-10T06:56:37.554Z,4.78
2023-11-10T06:59:04.522Z,3.40
2023-11-10T07:01:31.433Z,5.28
2023-11-10T07:03:58.334Z,4.65
2023-11-10T07:06:25.311Z,4.35
2023-11-10T07:08:52.217Z,4.15
2023-11-10T07:11:22.136Z,3.95
2023-11-10T07:13:51.128Z,4.07
2023-11-10T07:16:22.014Z,3.90
2023-11-10T07:18:50.394Z,3.25
2023-11-10T07:21:17.268Z,3.67
2023-11-10T07:23:45.294Z,3.17
2023-11-10T07:26:13.623Z,3.10
2023-11-10T07:28:40.523Z,4.50
2023-11-10T07:31:10.385Z,3.28
2023-11-10T07:33:37.292Z,3.92
2023-11-10T07:36:05.172Z,3.42
2023-11-10T07:38:32.413Z,2.65
2023-11-10T07:41:00.011Z,4.00
2023-11-10T07:43:27.017Z,4.38
2023-11-10T07:45:55.689Z,5.70
2023-11-10T07:48:23.127Z,5.28
2023-11-10T07:50:50.412Z,4.05
2023-11-10T07:53:17.383Z,4.72
2023-11-10T07:55:44.262Z,4.03
2023-11-10T07:58:11.231Z,3.15
2023-11-10T08:00:38.222Z,4.35
2023-11-10T08:03:05.484Z,3.25
2023-11-10T08:05:32.608Z,3.58
2023-11-10T08:07:59.673Z,3.65
2023-11-10T08:10:26.533Z,3.30
2023-11-10T08:12:54.704Z,4.90
2023-11-10T08:15:21.765Z,3.40
2023-11-10T08:17:48.674Z,3.97
2023-11-10T08:20:15.614Z,3.63
2023-11-10T08:22:42.647Z,5.80
2023-11-10T08:25:13.097Z,4.20
2023-11-10T08:27:40.375Z,4.95
2023-11-10T08:30:11.395Z,5.32
2023-11-10T08:32:38.823Z,3.53
2023-11-10T08:35:07.323Z,4.43
2023-11-10T08:37:34.294Z,3.63
2023-11-10T08:40:01.258Z,5.70
2023-11-10T08:42:28.218Z,4.53
2023-11-10T08:44:55.452Z,5.88
2023-11-10T08:47:23.176Z,4.70
2023-11-10T08:49:52.249Z,5.55
2023-11-10T08:52:20.517Z,4.85
2023-11-10T08:54:48.448Z,8.18
2023-11-10T08:57:15.909Z,6.03
2023-11-10T08:59:42.889Z,5.25
2023-11-10T09:02:10.014Z,5.32
2023-11-10T09:04:36.955Z,5.53
2023-11-10T09:07:06.594Z,3.90
2023-11-10T09:09:35.099Z,4.38
2023-11-10T09:12:02.816Z,3.22
2023-11-10T09:14:29.617Z,4.40
2023-11-10T09:16:56.764Z,3.67
2023-11-10T09:19:23.965Z,9.23
2023-11-10T09:21:51.132Z,5.78
2023-11-10T09:24:18.017Z,7.20
2023-11-10T09:26:45.142Z,5.55
2023-11-10T09:29:12.036Z,7.47
2023-11-10T09:31:39.934Z,8.77
2023-11-10T09:34:07.047Z,8.20
2023-11-10T09:36:35.369Z,8.57
2023-11-10T09:39:02.908Z,7.13
2023-11-10T09:41:42.336Z,7.22
2023-11-10T09:44:14.025Z,10.50
2023-11-10T09:46:44.397Z,5.78
2023-11-10T09:49:12.320Z,5.05
2023-11-10T09:51:43.733Z,4.53
2023-11-10T09:54:11.419Z,6.32
2023-11-10T09:56:41.157Z,5.97
2023-11-10T09:59:08.281Z,6.82
2023-11-10T10:01:35.602Z,4.25
2023-11-10T10:04:02.641Z,3.90
2023-11-10T10:06:29.982Z,4.78
2023-11-10T10:08:56.866Z,6.15
2023-11-10T10:11:24.045Z,3.53
2023-11-10T10:13:50.870Z,6.75
2023-11-10T10:16:17.904Z,5.03
2023-11-10T10:18:46.886Z,7.57
2023-11-10T10:21:13.987Z,6.35
2023-11-10T10:23:42.147Z,8.80
2023-11-10T10:26:14.036Z,8.23
2023-11-10T10:28:41.120Z,8.02
2023-11-10T10:31:08.217Z,7.20
2023-11-10T10:33:35.871Z,9.63
2023-11-10T10:36:04.744Z,7.20
2023-11-10T10:38:33.614Z,7.88
2023-11-10T10:41:06.417Z,8.10
2023-11-10T10:43:44.025Z,8.02
2023-11-10T10:46:21.936Z,8.20
2023-11-10T10:48:53.879Z,7.13
2023-11-10T10:51:24.167Z,9.23
2023-11-10T10:53:53.599Z,9.18
2023-11-10T10:56:34.190Z,10.68
2023-11-10T10:59:08.745Z,9.45
2023-11-10T11:01:36.072Z,10.40
2023-11-10T11:04:30.582Z,9.70
2023-11-10T11:07:23.798Z,12.85
2023-11-10T11:09:53.405Z,9.23
2023-11-10T11:12:57.135Z,9.77
2023-11-10T11:15:59.333Z,6.53
2023-11-10T11:19:05.134Z,8.13
2023-11-10T11:21:32.587Z,13.10
2023-11-10T11:24:06.120Z,8.23
2023-11-10T11:26:34.962Z,12.52
2023-11-10T11:29:08.091Z,5.88
2023-11-10T11:31:48.241Z,9.70
2023-11-10T11:34:23.508Z,5.97
2023-11-10T11:36:50.922Z,11.07
2023-11-10T11:39:21.127Z,11.48
2023-11-10T11:41:51.905Z,9.32
2023-11-10T11:44:27.735Z,8.23
2023-11-10T11:46:59.094Z,7.70
2023-11-10T11:49:27.467Z,7.20
2023-11-10T11:51:55.826Z,9.98
2023-11-10T11:54:28.988Z,9.77
2023-11-10T11:56:57.257Z,10.73
2023-11-10T11:59:24.935Z,7.88
2023-11-10T12:01:52.379Z,8.60
2023-11-10T12:04:19.441Z,9.55
2023-11-10T12:06:47.760Z,10.65
2023-11-10T12:09:15.045Z,7.43
2023-11-10T12:11:42.555Z,8.55
2023-11-10T12:14:13.040Z,9.95
2023-11-10T12:16:44.789Z,13.27
2023-11-10T12:19:13.734Z,8.60
2023-11-10T12:21:43.842Z,9.95
2023-11-10T12:24:11.441Z,10.73
2023-11-10T12:26:42.158Z,11.43
2023-11-10T12:29:18.583Z,8.70
2023-11-10T12:31:45.991Z,7.07
2023-11-10T12:34:14.483Z,9.65
2023-11-10T12:36:41.864Z,8.40
2023-11-10T12:39:19.277Z,7.97
2023-11-10T12:41:47.443Z,10.85
2023-11-10T12:44:18.462Z,7.55
2023-11-10T12:46:58.684Z,8.80
2023-11-10T12:49:28.309Z,16.52
2023-11-10T12:51:56.746Z,13.07
2023-11-10T12:54:25.788Z,11.27
2023-11-10T12:56:54.074Z,12.43
2023-11-10T12:59:31.258Z,8.55
2023-11-10T13:02:00.116Z,9.93
2023-11-10T13:04:27.429Z,11.90
2023-11-10T13:06:56.315Z,11.93
2023-11-10T13:09:23.633Z,9.27
2023-11-10T13:11:50.697Z,9.57
2023-11-10T13:14:17.950Z,8.93
2023-11-10T13:16:45.566Z,11.10
2023-11-10T13:19:12.797Z,10.20
2023-11-10T13:21:40.404Z,14.07
2023-11-10T13:24:08.444Z,8.25
2023-11-10T13:26:35.386Z,8.45
2023-11-10T13:29:02.200Z,11.13
2023-11-10T13:31:32.091Z,9.73
2023-11-10T13:34:00.166Z,8.43
2023-11-10T13:36:27.295Z,12.05
2023-11-10T13:38:54.714Z,10.90
2023-11-10T13:41:27.736Z,11.85
2023-11-10T13:43:59.664Z,13.43
2023-11-10T13:46:27.597Z,7.20
2023-11-10T13:48:57.079Z,10.68
2023-11-10T13:51:24.107Z,8.05
2023-11-10T13:53:52.848Z,6.60
2023-11-10T13:56:19.735Z,4.10
2023-11-10T13:58:46.838Z,5.55
2023-11-10T14:01:15.728Z,6.68
2023-11-10T14:03:43.045Z,4.60
2023-11-10T14:06:10.589Z,4.38
2023-11-10T14:08:40.928Z,5.65
2023-11-10T14:11:11.582Z,4.40
2023-11-10T14:13:39.502Z,6.97
2023-11-10T14:16:11.194Z,4.95
2023-11-10T14:18:41.025Z,7.38
2023-11-10T14:21:09.461Z,5.65
2023-11-10T14:23:36.547Z,7.45
2023-11-10T14:26:05.469Z,6.47
2023-11-10T14:28:35.949Z,8.70
2023-11-10T14:31:03.125Z,6.53
2023-11-10T14:33:31.054Z,6.97
2023-11-10T14:36:02.948Z,5.30
2023-11-10T14:38:36.158Z,5.63
2023-11-10T14:41:11.109Z,6.85
2023-11-10T14:43:38.482Z,5.07
2023-11-10T14:46:09.447Z,6.28
2023-11-10T14:48:42.231Z,7.07
2023-11-10T14:51:09.395Z,7.22
2023-11-10T14:53:39.041Z,3.38
2023-11-10T14:56:06.609Z,7.35
2023-11-10T14:58:33.640Z,6.38
2023-11-10T15:01:00.569Z,7.07
2023-11-10T15:03:28.762Z,8.30
2023-11-10T15:05:55.967Z,8.07
2023-11-10T15:08:22.838Z,9.95
2023-11-10T15:10:50.353Z,10.70
2023-11-10T15:13:17.728Z,7.85
2023-11-10T15:15:49.958Z,7.32
2023-11-10T15:18:21.098Z,9.63
2023-11-10T15:20:48.317Z,7.22
2023-11-10T15:23:15.611Z,8.85
2023-11-10T15:25:46.943Z,8.18
2023-11-10T15:28:15.664Z,8.18
2023-11-10T15:30:42.908Z,10.25
2023-11-10T15:33:11.098Z,7.28
2023-11-10T15:35:42.108Z,6.72
2023-11-10T15:38:10.224Z,5.35
2023-11-10T15:40:37.186Z,5.28
2023-11-10T15:43:04.253Z,5.38
2023-11-10T15:45:35.273Z,6.45
2023-11-10T15:48:05.174Z,3.95
2023-11-10T15:50:32.193Z,8.05
2023-11-10T15:52:59.146Z,10.07
2023-11-10T15:55:26.594Z,9.68
2023-11-10T15:57:54.158Z,10.15
2023-11-10T16:00:22.384Z,7.75
2023-11-10T16:02:50.400Z,12.25
2023-11-10T16:05:18.962Z,6.63
2023-11-10T16:07:46.419Z,12.30
2023-11-10T16:10:13.297Z,7.88
2023-11-10T16:12:40.532Z,5.13
2023-11-10T16:15:11.385Z,6.75
2023-11-10T16:17:38.356Z,5.63
2023-11-10T16:20:06.080Z,6.15
2023-11-10T16:22:33.674Z,6.32
2023-11-10T16:25:00.856Z,4.85
2023-11-10T16:27:29.640Z,7.13
2023-11-10T16:29:58.308Z,3.13
2023-11-10T16:32:30.958Z,10.02
2023-11-10T16:34:58.421Z,4.93
2023-11-10T16:37:25.473Z,6.78
2023-11-10T16:39:52.559Z,5.97
2023-11-10T16:42:19.679Z,5.72
2023-11-10T16:44:47.086Z,6.05
2023-11-10T16:47:14.832Z,6.15
2023-11-10T16:49:41.783Z,7.45
2023-11-10T16:52:08.907Z,6.35
2023-11-10T16:54:35.937Z,8.35
2023-11-10T16:57:04.106Z,6.05
2023-11-10T16:59:30.980Z,5.57
2023-11-10T17:01:59.327Z,7.63
2023-11-10T17:04:29.626Z,5.18
2023-11-10T17:06:56.567Z,7.68
2023-11-10T17:09:24.912Z,6.90
2023-11-10T17:11:52.852Z,10.77
2023-11-10T17:14:19.677Z,7.80
2023-11-10T17:16:46.646Z,6.43
2023-11-10T17:19:13.638Z,8.68
2023-11-10T17:21:40.527Z,9.75
2023-11-10T17:24:07.864Z,12.23
2023-11-10T17:26:34.814Z,11.07
2023-11-10T17:29:01.858Z,12.13
2023-11-10T17:31:28.946Z,11.18
2023-11-10T17:33:56.845Z,12.18
2023-11-10T17:36:25.136Z,11.40
2023-11-10T17:38:53.327Z,8.20
2023-11-10T17:41:20.261Z,11.57
2023-11-10T17:43:47.096Z,9.98
2023-11-10T17:46:14.185Z,8.50
2023-11-10T17:48:41.187Z,11.15
2023-11-10T17:51:08.308Z,8.43
2023-11-10T17:53:35.527Z,11.77
2023-11-10T17:56:02.601Z,13.95
2023-11-10T17:58:29.561Z,12.23
2023-11-10T18:00:56.650Z,12.98
2023-11-10T18:03:23.765Z,9.63
2023-11-10T18:05:50.834Z,11.07
2023-11-10T18:08:17.869Z,11.38
2023-11-10T18:10:45.854Z,11.93
2023-11-10T18:13:13.087Z,13.30
2023-11-10T18:15:40.568Z,12.32
2023-11-10T18:18:07.934Z,14.27
2023-11-10T18:20:36.098Z,10.75
2023-11-10T18:23:03.456Z,13.18
2023-11-10T18:25:31.200Z,13.60
2023-11-10T18:27:58.223Z,13.02
2023-11-10T18:30:27.496Z,16.13
2023-11-10T18:32:56.097Z,15.93
2023-11-10T18:35:24.098Z,14.98
2023-11-10T18:37:50.991Z,10.48
2023-11-10T18:40:17.983Z,15.60
2023-11-10T18:42:50.409Z,12.77
2023-11-10T18:45:17.377Z,12.30
2023-11-10T18:47:44.355Z,13.02
2023-11-10T18:50:12.012Z,15.05
2023-11-10T18:52:39.492Z,11.50
2023-11-10T18:55:08.133Z,7.85
2023-11-10T18:57:35.692Z,10.90
2023-11-10T19:00:02.560Z,8.20
2023-11-10T19:02:31.277Z,14.15
2023-11-10T19:04:58.528Z,9.13
2023-11-10T19:07:26.342Z,4.95
2023-11-10T19:09:53.549Z,7.20
2023-11-10T19:12:20.721Z,7.43
2023-11-10T19:14:47.756Z,7.47
2023-11-10T19:17:16.265Z,9.25
2023-11-10T19:19:44.060Z,4.82
2023-11-10T19:22:11.609Z,4.57
2023-11-10T19:24:38.833Z,14.88
2023-11-10T19:27:07.015Z,5.25
2023-11-10T19:29:34.104Z,4.75
2023-11-10T19:32:01.246Z,4.05
2023-11-10T19:34:28.515Z,4.28
2023-11-10T19:36:58.450Z,5.60
2023-11-10T19:39:26.228Z,2.88
2023-11-10T19:41:55.361Z,4.30
2023-11-10T19:44:23.575Z,4.47
2023-11-10T19:46:52.607Z,5.32
2023-11-10T19:49:19.701Z,5.85
2023-11-10T19:56:48.028Z,4.85
2023-11-10T20:01:45.588Z,7.05
2023-11-10T20:04:16.804Z,5.20
2023-11-10T20:06:43.813Z,9.43
2023-11-10T20:09:14.890Z,8.60
2023-11-10T20:11:42.330Z,5.43
2023-11-10T20:14:09.415Z,6.93
2023-11-10T20:16:39.344Z,5.65
2023-11-10T20:19:06.328Z,7.22
2023-11-10T20:21:33.163Z,6.57
2023-11-10T20:24:00.138Z,5.75
2023-11-10T20:26:27.078Z,6.30
2023-11-10T20:28:53.979Z,5.75
2023-11-10T20:31:21.030Z,5.95
2023-11-10T20:33:48.139Z,5.75
2023-11-10T20:36:15.090Z,5.78
2023-11-10T20:38:42.411Z,7.15
2023-11-10T20:41:09.786Z,4.60
2023-11-10T20:43:37.570Z,3.22
2023-11-10T20:46:04.951Z,4.80
2023-11-10T20:48:32.801Z,7.53
2023-11-10T20:50:59.998Z,6.10
2023-11-10T20:53:26.867Z,5.63
2023-11-10T20:55:53.787Z,5.60
2023-11-10T20:58:20.697Z,7.20
2023-11-10T21:00:47.702Z,5.35
2023-11-10T21:03:14.748Z,6.05
2023-11-10T21:05:45.191Z,7.88
2023-11-10T21:08:12.942Z,6.00
2023-11-10T21:10:39.816Z,7.53
2023-11-10T21:13:08.173Z,6.07
2023-11-10T21:15:35.741Z,8.48
2023-11-10T21:18:02.889Z,8.43
2023-11-10T21:20:30.573Z,8.77
2023-11-10T21:22:57.566Z,9.55
2023-11-10T21:25:25.692Z,7.75
2023-11-10T21:27:57.207Z,8.45
2023-11-10T21:30:26.897Z,8.73
2023-11-10T21:32:54.312Z,9.40
2023-11-10T21:35:27.189Z,8.50
2023-11-10T21:37:57.273Z,7.13
2023-11-10T21:40:24.331Z,8.18
2023-11-10T21:42:51.265Z,7.53
2023-11-10T21:45:19.064Z,10.93
2023-11-10T21:47:46.036Z,6.43
2023-11-10T21:50:13.369Z,8.70
2023-11-10T21:52:41.579Z,7.32
2023-11-10T21:55:10.124Z,9.27
2023-11-10T21:57:37.024Z,9.60
2023-11-10T22:00:04.218Z,8.10
2023-11-10T22:02:31.062Z,6.30
2023-11-10T22:04:59.742Z,8.68
2023-11-10T22:07:26.682Z,6.63
2023-11-10T22:09:53.598Z,8.05
2023-11-10T22:12:21.146Z,6.43
2023-11-10T22:14:48.961Z,8.95
2023-11-10T22:17:15.790Z,7.40
2023-11-10T22:19:42.909Z,6.75
2023-11-10T22:22:09.840Z,6.82
2023-11-10T22:24:37.693Z,6.10
2023-11-10T22:27:05.366Z,6.70
2023-11-10T22:29:32.301Z,6.18
2023-11-10T22:32:00.375Z,6.90
2023-11-10T22:34:27.821Z,5.65
2023-11-10T22:36:54.705Z,8.57
2023-11-10T22:39:21.567Z,6.78
2023-11-10T22:41:48.473Z,5.30
2023-11-10T22:44:15.350Z,5.72
2023-11-10T22:46:42.747Z,6.68
2023-11-10T22:49:09.576Z,5.40
2023-11-10T22:51:36.531Z,8.70
2023-11-10T22:54:04.081Z,5.13
2023-11-10T22:56:30.973Z,6.22
2023-11-10T22:58:57.929Z,5.80
2023-11-10T23:01:25.312Z,8.38
2023-11-10T23:03:53.794Z,5.57
2023-11-10T23:06:21.127Z,8.30
2023-11-10T23:08:47.988Z,8.20
2023-11-10T23:11:15.402Z,6.22
2023-11-10T23:13:43.294Z,6.95
2023-11-10T23:16:10.430Z,8.38
2023-11-10T23:18:38.647Z,7.88
2023-11-10T23:21:06.187Z,7.82
2023-11-10T23:23:33.478Z,10.25
2023-11-10T23:26:00.594Z,10.75
2023-11-10T23:28:28.138Z,8.63
2023-11-10T23:30:55.394Z,6.53
2023-11-10T23:33:23.568Z,7.85
2023-11-10T23:35:59.179Z,9.90
2023-11-10T23:38:29.734Z,10.05
2023-11-10T23:40:57.953Z,7.93
2023-11-10T23:43:25.328Z,10.93
2023-11-10T23:45:52.645Z,11.10
2023-11-10T23:48:20.057Z,8.80
2023-11-10T23:50:47.886Z,10.82
2023-11-10T23:53:15.587Z,8.57
2023-11-10T23:55:43.801Z,9.60
2023-11-10T23:58:10.763Z,12.52
